LEGA weather

Armilla Air Base
Armilla, AndalucĂ­a, Spain

Public forecast

Using degrees Celsius for public forecast. Weather courtesy of forecast.io.

Current aviation weather report (METAR) for Armilla Air Base

Retrieved 2020/07/14 10:00 UTC (8 minutes ago):

LEGA 141000Z VRB03KT 9999 FEW070TCU FEW060 31/12 Q1017

Aviation forecast (TAF) for Armilla Air Base

Forecast is more than 12 hours old.

Retrieved 2015/01/24 09:30 UTC (5 years ago):

TAF TAF LEGA 240800Z 2409/2421 VRB02KT CAVOK